Bradbury, CA (91008)

10:34 PM PDT on September 30, 2014 (GMT -0700)
NE Duarte, Near Rancho Duarte Golf Course | Change Station
CLOSE
Current Station
Personal Weather Station
Location: Duarte, CA
Elevation: 587 ft
Nearby Weather Stations

Elev 587 ft 34.14 °N, 117.95 °W | Updated 8 minutes ago

Clear
Clear
75.6 °F
Feels Like 78 °F
N
0.0
Wind Variable Wind from North
Gusts 0.0 mph

Today
High -- | Low -- °F
--% Chance of Precip.
Yesterday
High -- | Low -- °F
Precip. -- in
6:45 AM 6:37 PM
Waxing Crescent, 44% visible
Pressure 29.81 in
Visibility 10.0 miles
Clouds Clear
Heat Index 78 °F
Dew Point 54 °F
Humidity 47%
Rainfall -999.00 in
Snow Depth 1 in , 0 in , 0 in
UV 0 out of 12
Pollen 5.30 out of 12
Ozone Good
PM2.5 Moderate
Flu Activity Not available.
METAR KPOC 010347Z 26005KT 10SM CLR 23/09 A2981

More Conditions Fewer Conditions

Pressure 29.81 in
Visibility 10.0 miles
Clouds Clear
Heat Index 78 °F
Dew Point 54 °F
Humidity 47%
Rainfall -999.00 in
Snow Depth 1 in , 0 in , 0 in
UV 0 out of 12
Pollen 5.30 out of 12
Ozone Good
PM2.5 Moderate
Flu Activity Not available.
METAR KPOC 010347Z 26005KT 10SM CLR 23/09 A2981

More Conditions Fewer Conditions

10-Day Weather Forecast

Almanac

Astronomy

Sep. 30, 2014 Rise Set
Actual Time 6:45 AM PDT 6:37 PM PDT
Civil Twilight 6:20 AM PDT 7:02 PM PDT
Nautical Twilight 5:51 AM PDT 7:31 PM PDT
Astronomical Twilight 5:22 AM PDT 8:00 PM PDT
Moon 12:46 PM PDT (9/30) 11:23 PM PDT (9/30)
Length of Visible Light 12h 41m
Length of Day
11h 51m
Tomorrow will be 2m 6s shorter.
Waxing Crescent, 44% of the Moon is Illuminated
Oct 1
Waxing Crescent
Oct 1
First Quarter
Oct 8
Full
Oct 15
Last Quarter
Oct 23
New

Yesterday's Extremes

State Highs State Lows

Community

WunderPhotos

Upload Photos

1,757,868 photos uploaded!

Nearby

Air Quality

  Air Quality AQ Index Pollutant
Yesterday Good
PM10
Yesterday Good
OZONE
Current Moderate
PM2.5
Current Good
OZONE
Wednesday Good
PM10
Wednesday Moderate
OZONE
Wednesday Good
CO
Wednesday Good
NO2

Snow Depth

Station Depth Elevation
Leavitt Meadows 1 in 7200 ft
Adin Mountain 0 in 6200 ft
Rubicon #2 0 in 7500 ft
Summit Meadow 0 in 9122 ft
Fallen Leaf 0 in 6300 ft

Earthquake Activity

City Distance Mag. Time & Date
Avalon, California 76 miles 2.6 1:28 PM PDT
2014-09-30
Minimum magnitude displayed is 2.5.

Coastal Water Temperatures

Place Temperature
Santa Monica Pier 68.0 °F
Los Angeles, CA 66.9 °F
La Jolla, CA 71.1 °F

Nearby Weather Stations